Time;durP1;ratioP1;P1;durP2;ratioP2;P2;SDS_P1;SDS_P2;PMS_P1;PMS_P2;Temp;Humidity;BMP_temperature;BMP_pressure;BME280_temperature;BME280_humidity;BME280_pressure;Samples;Min_cycle;Max_cycle;Signal;HPM_P1;HPM_P2
2021/04/10 00:04:40;;;;;;;10.77;6.97;;;3.20;99.90;;;;;;4969419;26;20520;-73
2021/04/10 00:07:06;;;;;;;15.25;7.75;;;3.20;99.90;;;;;;5069236;28;20049;-74
2021/04/10 00:09:32;;;;;;;13.10;6.72;;;3.20;99.90;;;;;;5052364;28;20036;-73
2021/04/10 00:11:57;;;;;;;13.35;7.43;;;3.20;99.90;;;;;;5052120;28;20411;-73
2021/04/10 00:14:24;;;;;;;11.98;6.88;;;3.20;99.90;;;;;;5070221;28;20096;-73
2021/04/10 00:16:50;;;;;;;11.05;7.05;;;3.20;99.90;;;;;;5089996;22;20102;-73
2021/04/10 00:19:15;;;;;;;13.15;7.47;;;3.30;99.90;;;;;;5054177;28;20028;-73
2021/04/10 00:21:41;;;;;;;12.75;7.05;;;3.40;99.90;;;;;;5054198;28;20052;-74
2021/04/10 00:24:08;;;;;;;15.40;7.40;;;3.40;99.90;;;;;;5072176;28;20431;-73
2021/04/10 00:26:34;;;;;;;17.70;7.28;;;3.40;99.90;;;;;;5071880;28;20031;-73
2021/04/10 00:28:59;;;;;;;15.68;7.53;;;3.40;99.90;;;;;;5071975;28;20115;-73
2021/04/10 00:31:25;;;;;;;11.63;6.55;;;3.50;99.90;;;;;;5053561;28;20036;-73
2021/04/10 00:33:51;;;;;;;18.33;7.28;;;3.60;99.90;;;;;;5071986;28;20033;-74
2021/04/10 00:36:16;;;;;;;12.00;6.78;;;3.90;99.90;;;;;;5071703;28;20028;-73
2021/04/10 00:38:42;;;;;;;18.38;7.88;;;4.10;99.90;;;;;;5072049;28;20097;-73
2021/04/10 00:41:09;;;;;;;16.40;7.43;;;4.20;99.90;;;;;;5071673;28;20504;-73
2021/04/10 00:43:35;;;;;;;12.88;6.18;;;4.20;99.90;;;;;;5071692;28;20192;-74
2021/04/10 00:46:00;;;;;;;12.82;6.18;;;4.30;99.90;;;;;;5071831;28;20056;-74
2021/04/10 00:48:26;;;;;;;17.08;7.90;;;4.30;99.90;;;;;;5053976;28;20032;-74
2021/04/10 00:50:54;;;;;;;11.80;6.95;;;4.40;99.90;;;;;;5071549;28;20028;-73
2021/04/10 00:53:23;;;;;;;15.13;7.38;;;4.40;99.90;;;;;;5071473;28;20606;-74
2021/04/10 00:55:51;;;;;;;16.90;8.23;;;4.40;99.90;;;;;;5053342;28;20032;-74
2021/04/10 00:58:17;;;;;;;13.88;7.38;;;4.40;99.90;;;;;;5071565;28;20023;-73
2021/04/10 01:00:42;;;;;;;16.17;7.35;;;4.40;99.90;;;;;;5071552;28;20024;-73
2021/04/10 01:03:08;;;;;;;17.00;7.85;;;4.30;99.90;;;;;;5053347;28;20051;-74
2021/04/10 01:05:35;;;;;;;17.70;8.13;;;4.20;99.90;;;;;;5053222;28;20025;-73
2021/04/10 01:08:01;;;;;;;15.55;7.60;;;4.10;99.90;;;;;;5053174;28;20032;-74
2021/04/10 01:10:30;;;;;;;15.50;8.50;;;3.90;99.90;;;;;;5053120;28;20116;-73
2021/04/10 01:13:09;;;;;;;14.50;8.25;;;3.80;99.90;;;;;;5071076;28;20023;-73
2021/04/10 01:15:43;;;;;;;15.50;7.07;;;3.70;99.90;;;;;;5053306;28;20476;-73
2021/04/10 01:18:15;;;;;;;16.73;7.53;;;3.60;99.90;;;;;;5070802;28;20111;-74
2021/04/10 01:20:54;;;;;;;18.00;7.20;;;3.50;99.90;;;;;;5053307;28;20430;-74
2021/04/10 01:23:45;;;;;;;11.70;6.70;;;3.40;99.90;;;;;;5071222;28;20093;-73
2021/04/10 01:26:32;;;;;;;17.35;8.70;;;3.30;99.90;;;;;;5052761;28;20059;-73
2021/04/10 01:29:07;;;;;;;14.50;7.80;;;3.20;99.90;;;;;;5071006;28;20033;-73
2021/04/10 01:31:43;;;;;;;13.65;7.95;;;3.10;99.90;;;;;;5052732;28;20028;-73
2021/04/10 01:34:38;;;;;;;14.60;6.85;;;3.10;99.90;;;;;;5071054;28;20104;-74
2021/04/10 01:37:15;;;;;;;13.43;7.80;;;3.00;99.90;;;;;;5070523;28;20021;-74
2021/04/10 01:39:42;;;;;;;14.77;7.68;;;3.00;99.90;;;;;;5070535;28;20098;-73
2021/04/10 01:42:11;;;;;;;14.57;7.65;;;3.00;99.90;;;;;;5070039;28;20046;-73
2021/04/10 01:44:39;;;;;;;12.27;7.30;;;3.00;99.90;;;;;;5070450;28;20024;-74
2021/04/10 01:47:07;;;;;;;13.45;6.95;;;2.90;99.90;;;;;;5052554;28;20048;-74
2021/04/10 01:49:34;;;;;;;13.57;6.93;;;2.90;99.90;;;;;;5052478;28;20523;-73
2021/04/10 01:52:02;;;;;;;12.88;7.53;;;2.80;99.90;;;;;;5070724;28;20134;-73
2021/04/10 01:54:29;;;;;;;13.38;6.90;;;2.70;99.90;;;;;;5054196;28;20472;-73
2021/04/10 01:56:56;;;;;;;11.52;6.38;;;2.70;99.90;;;;;;5071063;28;20120;-74
2021/04/10 01:59:22;;;;;;;15.02;7.10;;;2.60;99.90;;;;;;5053308;28;20020;-73
2021/04/10 02:01:50;;;;;;;19.05;7.10;;;2.60;99.90;;;;;;5070613;28;20560;-73
2021/04/10 02:04:18;;;;;;;13.43;7.57;;;2.50;99.90;;;;;;5070540;28;20029;-73
2021/04/10 02:06:44;;;;;;;14.00;7.45;;;2.40;99.90;;;;;;5070614;28;20032;-73
2021/04/10 02:09:11;;;;;;;14.95;7.30;;;2.40;99.90;;;;;;5052561;28;20450;-73
2021/04/10 02:11:38;;;;;;;13.35;7.32;;;2.30;99.90;;;;;;5052670;28;20036;-73
2021/04/10 02:14:05;;;;;;;16.50;8.02;;;2.30;99.90;;;;;;5052888;28;20021;-73
2021/04/10 02:16:31;;;;;;;14.00;7.20;;;2.30;99.90;;;;;;5071655;28;20029;-74
2021/04/10 02:18:59;;;;;;;14.07;8.50;;;2.30;99.90;;;;;;5070211;28;20028;-74
2021/04/10 02:21:26;;;;;;;14.30;7.55;;;2.40;99.90;;;;;;5069751;28;20052;-74
2021/04/10 02:23:55;;;;;;;15.13;7.95;;;2.40;99.90;;;;;;5069847;28;20020;-73
2021/04/10 02:26:21;;;;;;;12.68;6.93;;;2.50;99.90;;;;;;5069589;28;20032;-74
2021/04/10 02:28:47;;;;;;;13.60;8.10;;;2.50;99.90;;;;;;5069672;28;20031;-73
2021/04/10 02:31:47;;;;;;;12.98;7.63;;;2.60;99.90;;;;;;5069643;28;20021;-73
2021/04/10 02:34:16;;;;;;;17.73;8.20;;;2.70;99.90;;;;;;5051734;28;20036;-73
2021/04/10 02:36:44;;;;;;;13.43;7.35;;;2.80;99.90;;;;;;5051964;28;20122;-74
2021/04/10 02:39:11;;;;;;;14.27;8.32;;;2.90;99.90;;;;;;5069527;28;20027;-74
2021/04/10 02:41:39;;;;;;;15.30;8.30;;;3.00;99.90;;;;;;5069801;28;20025;-74
2021/04/10 02:44:08;;;;;;;12.15;7.40;;;3.10;99.90;;;;;;5051528;28;20115;-74
2021/04/10 02:46:47;;;;;;;15.48;8.00;;;3.20;99.90;;;;;;5051441;28;20035;-74
2021/04/10 02:49:17;;;;;;;14.60;7.55;;;3.30;99.90;;;;;;5069535;28;20051;-73
2021/04/10 02:51:46;;;;;;;9.23;6.70;;;3.30;99.90;;;;;;5069615;28;20504;-74
2021/04/10 02:54:16;;;;;;;12.93;7.40;;;3.30;99.90;;;;;;5069057;28;20032;-73
2021/04/10 02:56:48;;;;;;;11.50;7.00;;;3.30;99.90;;;;;;5051265;28;20027;-73
2021/04/10 02:59:14;;;;;;;7.70;5.20;;;3.30;99.90;;;;;;5051391;28;20021;-73
2021/04/10 03:01:41;;;;;;;13.68;7.63;;;3.30;99.90;;;;;;5069853;28;20034;-73
2021/04/10 03:04:09;;;;;;;13.43;7.85;;;3.40;99.90;;;;;;5051260;28;20059;-74
2021/04/10 03:06:35;;;;;;;12.93;7.15;;;3.40;99.90;;;;;;5069077;28;20112;-73
2021/04/10 03:09:02;;;;;;;13.27;7.25;;;3.50;99.90;;;;;;5069146;28;20060;-74
2021/04/10 03:11:29;;;;;;;10.93;6.60;;;3.50;99.90;;;;;;5069127;28;20103;-74
2021/04/10 03:13:54;;;;;;;11.40;7.10;;;3.50;99.90;;;;;;5051206;28;20081;-73
2021/04/10 03:16:21;;;;;;;11.73;7.30;;;3.60;99.90;;;;;;5068920;28;20072;-74
2021/04/10 03:18:50;;;;;;;12.25;6.93;;;3.60;99.90;;;;;;5069380;28;20024;-73
2021/04/10 03:21:16;;;;;;;10.80;6.72;;;3.60;99.90;;;;;;5069087;28;20016;-74
2021/04/10 03:23:42;;;;;;;12.25;7.32;;;3.60;99.90;;;;;;5051231;28;20503;-73
2021/04/10 03:26:08;;;;;;;12.23;6.88;;;3.60;99.90;;;;;;5069183;28;20047;-73
2021/04/10 03:28:35;;;;;;;13.48;7.20;;;3.50;99.90;;;;;;5069054;28;20032;-73
2021/04/10 03:31:02;;;;;;;14.02;6.50;;;3.40;99.90;;;;;;5068880;28;20492;-73
2021/04/10 03:33:37;;;;;;;12.35;7.75;;;3.40;99.90;;;;;;5069203;28;20016;-74
2021/04/10 03:36:04;;;;;;;11.90;6.63;;;3.40;99.90;;;;;;5050926;28;20017;-74
2021/04/10 03:38:31;;;;;;;10.35;6.85;;;3.40;99.90;;;;;;5069201;28;20040;-74
2021/04/10 03:40:57;;;;;;;13.30;7.38;;;3.30;99.90;;;;;;5050919;28;20060;-73
2021/04/10 03:43:22;;;;;;;15.07;8.30;;;3.40;99.90;;;;;;5068901;28;20067;-74
2021/04/10 03:45:48;;;;;;;13.23;7.55;;;3.40;99.90;;;;;;5050919;28;20052;-74
2021/04/10 03:48:13;;;;;;;13.98;8.00;;;3.40;99.90;;;;;;5069181;28;20511;-73
2021/04/10 03:50:40;;;;;;;13.52;8.15;;;3.40;99.90;;;;;;5068712;28;20063;-73
2021/04/10 03:53:06;;;;;;;15.18;8.82;;;3.50;99.90;;;;;;5050803;28;20023;-73
2021/04/10 03:55:32;;;;;;;16.50;8.20;;;3.50;99.90;;;;;;5068780;28;20024;-73
2021/04/10 03:58:03;;;;;;;15.80;7.45;;;3.50;99.90;;;;;;5068655;28;20138;-74
2021/04/10 04:00:30;;;;;;;16.48;8.55;;;3.50;99.90;;;;;;5068692;28;20024;-74
2021/04/10 04:02:57;;;;;;;12.18;7.70;;;3.50;99.90;;;;;;5068831;28;20067;-73
2021/04/10 04:05:23;;;;;;;16.58;8.65;;;3.40;99.90;;;;;;5070353;28;20384;-73
2021/04/10 04:07:49;;;;;;;16.83;8.55;;;3.40;99.90;;;;;;5072366;28;20020;-73
2021/04/10 04:10:15;;;;;;;18.33;8.73;;;3.40;99.90;;;;;;5054527;28;20044;-73
2021/04/10 04:12:41;;;;;;;18.08;9.30;;;3.30;99.90;;;;;;5054372;28;20119;-73
2021/04/10 04:15:07;;;;;;;14.98;8.32;;;3.30;99.90;;;;;;5072280;28;20052;-73
2021/04/10 04:17:33;;;;;;;15.40;9.07;;;3.20;99.90;;;;;;5054138;28;20039;-74
2021/04/10 04:19:59;;;;;;;16.73;9.68;;;3.20;99.90;;;;;;5072332;28;20034;-74
2021/04/10 04:22:24;;;;;;;15.32;8.95;;;3.20;99.90;;;;;;5072131;28;20064;-73
2021/04/10 04:24:50;;;;;;;14.95;8.68;;;3.20;99.90;;;;;;5054216;28;20028;-73
2021/04/10 04:27:15;;;;;;;17.67;9.15;;;3.20;99.90;;;;;;5054071;28;20028;-73
2021/04/10 04:29:42;;;;;;;16.35;9.95;;;3.20;99.90;;;;;;5071962;28;20025;-73
2021/04/10 04:32:07;;;;;;;14.27;8.80;;;3.20;99.90;;;;;;5053968;28;20067;-73
2021/04/10 04:34:35;;;;;;;20.48;8.45;;;3.20;99.90;;;;;;5071900;28;20056;-73
2021/04/10 04:37:00;;;;;;;13.23;8.18;;;3.20;99.90;;;;;;5071912;28;20025;-73
2021/04/10 04:39:26;;;;;;;16.42;8.48;;;3.30;99.90;;;;;;5054210;28;20031;-74
2021/04/10 04:41:51;;;;;;;17.20;8.32;;;3.40;99.90;;;;;;5053868;28;20033;-74
2021/04/10 04:44:17;;;;;;;16.90;8.48;;;3.50;99.90;;;;;;5053808;28;20074;-74
2021/04/10 04:46:42;;;;;;;16.60;8.85;;;3.50;99.90;;;;;;5071663;28;20436;-74
2021/04/10 04:49:08;;;;;;;15.23;8.55;;;3.60;99.90;;;;;;5053650;28;20028;-74
2021/04/10 04:51:34;;;;;;;16.80;8.90;;;3.70;99.90;;;;;;5071398;28;20029;-73
2021/04/10 04:53:59;;;;;;;16.15;8.60;;;3.80;99.90;;;;;;5071481;28;20012;-74
2021/04/10 04:56:25;;;;;;;14.77;8.65;;;3.90;99.90;;;;;;5053467;28;20107;-73
2021/04/10 04:58:50;;;;;;;16.00;9.02;;;4.00;99.90;;;;;;5071442;28;20036;-73
2021/04/10 05:01:17;;;;;;;14.55;8.15;;;4.10;99.90;;;;;;5071447;28;20032;-73
2021/04/10 05:03:42;;;;;;;12.75;7.47;;;4.10;99.90;;;;;;5071603;28;20477;-73
2021/04/10 05:06:08;;;;;;;12.43;7.15;;;4.20;99.90;;;;;;5053315;28;20024;-74
2021/04/10 05:08:33;;;;;;;14.90;7.85;;;4.30;99.90;;;;;;5071291;28;20024;-74
2021/04/10 05:10:59;;;;;;;19.30;8.07;;;4.50;99.90;;;;;;5071442;28;20047;-73
2021/04/10 05:13:24;;;;;;;14.82;7.20;;;4.50;99.90;;;;;;5053296;28;20017;-74
2021/04/10 05:15:50;;;;;;;13.85;6.97;;;4.60;99.90;;;;;;5070491;28;20534;-74
2021/04/10 05:18:16;;;;;;;16.48;7.05;;;4.60;99.90;;;;;;5052598;28;20035;-73
2021/04/10 05:20:41;;;;;;;10.27;5.93;;;4.70;99.90;;;;;;5071161;28;20028;-74
2021/04/10 05:23:07;;;;;;;9.43;6.55;;;4.80;99.90;;;;;;5070969;28;20032;-73
2021/04/10 05:25:33;;;;;;;8.50;5.78;;;5.00;99.90;;;;;;5070925;28;20021;-74
2021/04/10 05:27:59;;;;;;;11.68;6.45;;;5.10;99.90;;;;;;5052905;28;20052;-74
2021/04/10 05:30:24;;;;;;;17.77;6.30;;;5.30;99.90;;;;;;5070883;28;20024;-74
2021/04/10 05:32:50;;;;;;;13.45;6.45;;;5.40;99.90;;;;;;5070849;28;20090;-73
2021/04/10 05:35:16;;;;;;;12.48;6.75;;;5.60;99.90;;;;;;5052895;28;20107;-74
2021/04/10 05:37:42;;;;;;;9.55;6.18;;;5.80;99.90;;;;;;5070894;28;20059;-74
2021/04/10 05:40:09;;;;;;;10.00;6.15;;;5.90;99.90;;;;;;5072539;28;20024;-74
2021/04/10 05:42:34;;;;;;;10.20;5.82;;;6.10;99.90;;;;;;5071077;28;20029;-74
2021/04/10 05:45:00;;;;;;;12.40;6.32;;;6.30;99.90;;;;;;5070618;28;20031;-74
2021/04/10 05:47:26;;;;;;;12.63;4.97;;;6.40;99.90;;;;;;5070781;28;20032;-74
2021/04/10 05:49:51;;;;;;;10.38;6.05;;;6.60;99.90;;;;;;5052688;28;20032;-74
2021/04/10 05:52:17;;;;;;;10.55;5.65;;;6.70;99.90;;;;;;5070441;28;20024;-74
2021/04/10 05:54:42;;;;;;;7.28;4.68;;;6.90;99.90;;;;;;5052417;28;20023;-74
2021/04/10 05:57:08;;;;;;;10.27;5.32;;;7.00;99.90;;;;;;5052408;28;20025;-73
2021/04/10 05:59:34;;;;;;;9.70;5.32;;;7.10;99.90;;;;;;5070286;28;20095;-74
2021/04/10 06:02:05;;;;;;;7.93;5.20;;;7.10;99.90;;;;;;5070259;28;20425;-74
2021/04/10 06:04:34;;;;;;;8.15;5.25;;;7.10;99.90;;;;;;5070591;28;20492;-74
2021/04/10 06:07:00;;;;;;;8.63;4.70;;;7.00;99.90;;;;;;5070096;28;20065;-74
2021/04/10 06:09:26;;;;;;;8.70;5.88;;;7.00;99.90;;;;;;5052244;28;20431;-73
2021/04/10 06:11:51;;;;;;;9.23;5.97;;;6.90;99.90;;;;;;5070050;28;20028;-73
2021/04/10 06:14:19;;;;;;;12.88;5.82;;;6.90;99.90;;;;;;5070354;28;20099;-73
2021/04/10 06:16:45;;;;;;;8.88;6.20;;;7.00;99.90;;;;;;5083060;22;20030;-74
2021/04/10 06:19:11;;;;;;;11.43;7.15;;;7.20;99.90;;;;;;5050440;28;20036;-74
2021/04/10 06:21:36;;;;;;;17.40;7.82;;;7.40;99.90;;;;;;5049085;28;20017;-74
2021/04/10 06:24:02;;;;;;;15.20;7.97;;;7.50;99.90;;;;;;5050488;28;20025;-74
2021/04/10 06:26:28;;;;;;;10.52;7.53;;;7.70;99.90;;;;;;5050703;28;20112;-74
2021/04/10 06:28:53;;;;;;;15.93;8.82;;;8.00;99.90;;;;;;5049098;28;20021;-74
2021/04/10 06:31:19;;;;;;;10.82;8.07;;;8.10;99.90;;;;;;5049037;28;20029;-74
2021/04/10 06:33:44;;;;;;;15.73;8.43;;;8.30;99.90;;;;;;5049177;28;20111;-74
2021/04/10 06:36:10;;;;;;;13.70;9.00;;;8.40;99.90;;;;;;5049026;28;20142;-73
2021/04/10 06:38:35;;;;;;;15.55;6.82;;;8.50;99.90;;;;;;5048934;28;20028;-73
2021/04/10 06:41:01;;;;;;;8.95;5.60;;;8.60;99.90;;;;;;5048538;28;20031;-74
2021/04/10 06:43:27;;;;;;;9.32;4.88;;;8.80;99.90;;;;;;5050001;28;20033;-75
2021/04/10 06:45:52;;;;;;;8.50;4.68;;;9.00;99.90;;;;;;5048518;28;20111;-73
2021/04/10 06:48:22;;;;;;;10.48;5.28;;;9.20;99.90;;;;;;5049580;28;20029;-74
2021/04/10 06:50:48;;;;;;;9.02;5.18;;;9.30;99.90;;;;;;5049562;28;20029;-74
2021/04/10 06:53:17;;;;;;;11.52;4.88;;;9.50;99.90;;;;;;5049655;28;20017;-74
2021/04/10 06:55:51;;;;;;;10.55;4.53;;;9.70;99.90;;;;;;5048400;28;20024;-74
2021/04/10 06:58:31;;;;;;;7.57;5.03;;;9.70;99.30;;;;;;5050129;28;20481;-73
2021/04/10 07:00:57;;;;;;;7.75;4.70;;;9.80;99.90;;;;;;5050313;28;20040;-74
2021/04/10 07:03:25;;;;;;;7.75;4.93;;;10.00;99.10;;;;;;5049528;28;20032;-74
2021/04/10 07:05:53;;;;;;;11.02;5.07;;;10.20;98.70;;;;;;5048286;28;20032;-74
2021/04/10 07:08:21;;;;;;;7.95;4.72;;;10.40;97.20;;;;;;5048217;28;20520;-74
2021/04/10 07:10:47;;;;;;;6.65;4.55;;;10.70;96.20;;;;;;5049472;28;20028;-75
2021/04/10 07:13:13;;;;;;;6.82;3.95;;;10.80;93.80;;;;;;5049497;28;20058;-74
2021/04/10 07:15:38;;;;;;;8.02;4.90;;;11.00;93.00;;;;;;5048355;28;20064;-74
2021/04/10 07:18:05;;;;;;;8.90;4.65;;;11.30;92.00;;;;;;5050204;28;20482;-74
2021/04/10 07:20:33;;;;;;;6.32;4.13;;;11.60;90.80;;;;;;5049030;28;20478;-75
2021/04/10 07:23:08;;;;;;;9.45;4.80;;;12.00;87.80;;;;;;5048995;28;20120;-74
2021/04/10 07:25:36;;;;;;;5.15;4.10;;;12.40;82.10;;;;;;5050062;28;20425;-74
2021/04/10 07:28:20;;;;;;;11.02;4.43;;;12.90;78.80;;;;;;5048299;28;20025;-74
2021/04/10 07:31:03;;;;;;;7.63;4.72;;;13.50;74.50;;;;;;5049240;28;20082;-74
2021/04/10 07:33:34;;;;;;;6.80;4.20;;;13.60;70.60;;;;;;5048061;28;20029;-74
2021/04/10 07:36:02;;;;;;;6.95;4.40;;;13.80;71.80;;;;;;5049362;28;20478;-74
2021/04/10 07:38:33;;;;;;;8.13;4.20;;;13.90;69.50;;;;;;5049431;28;20071;-74
2021/04/10 07:41:01;;;;;;;7.50;4.63;;;13.90;69.70;;;;;;5050653;28;20031;-74
2021/04/10 07:43:31;;;;;;;9.45;4.47;;;13.80;70.10;;;;;;5053162;28;20503;-75
2021/04/10 07:46:10;;;;;;;8.05;4.20;;;13.90;70.40;;;;;;5051707;28;20051;-74
2021/04/10 07:48:36;;;;;;;7.22;4.10;;;14.20;67.80;;;;;;5051587;28;20112;-74
2021/04/10 07:51:02;;;;;;;6.63;3.97;;;14.80;65.20;;;;;;5053198;28;20032;-74
2021/04/10 07:53:29;;;;;;;7.93;4.50;;;15.10;63.20;;;;;;5052704;28;20032;-74
2021/04/10 07:55:57;;;;;;;7.60;4.00;;;16.00;59.10;;;;;;5052758;28;20021;-74
2021/04/10 07:58:24;;;;;;;5.85;4.20;;;17.50;55.80;;;;;;5052543;28;20489;-74
2021/04/10 08:00:51;;;;;;;7.30;4.20;;;19.60;50.40;;;;;;5052638;28;20057;-75
2021/04/10 08:03:25;;;;;;;7.50;3.97;;;21.70;44.50;;;;;;5052520;28;20017;-75
2021/04/10 08:05:52;;;;;;;7.43;3.47;;;22.60;41.50;;;;;;5051147;28;20066;-75
2021/04/10 08:08:19;;;;;;;4.32;3.22;;;22.90;39.20;;;;;;5052279;28;20021;-75
2021/04/10 08:10:45;;;;;;;6.63;3.72;;;22.70;38.60;;;;;;5050942;28;20375;-75
2021/04/10 08:13:11;;;;;;;10.50;4.18;;;21.80;40.50;;;;;;5050955;28;20116;-75
2021/04/10 08:15:36;;;;;;;5.63;3.13;;;21.20;42.00;;;;;;5052237;28;20067;-75
2021/04/10 08:18:20;;;;;;;5.75;3.40;;;21.50;39.30;;;;;;5052069;28;20040;-75
2021/04/10 08:20:50;;;;;;;7.40;3.05;;;22.50;37.40;;;;;;5050911;28;20029;-75
2021/04/10 08:23:17;;;;;;;8.07;3.17;;;24.30;34.40;;;;;;5051761;28;20025;-75
2021/04/10 08:25:44;;;;;;;6.10;2.92;;;25.50;30.70;;;;;;5050838;28;20044;-74
2021/04/10 08:28:10;;;;;;;5.45;3.20;;;26.10;29.80;;;;;;5050706;28;20021;-74
2021/04/10 08:30:35;;;;;;;6.68;3.42;;;25.60;29.80;;;;;;5050625;28;20107;-74
2021/04/10 08:33:01;;;;;;;5.38;3.05;;;26.20;30.00;;;;;;5050687;28;20118;-73
2021/04/10 08:35:26;;;;;;;5.97;3.13;;;27.00;28.40;;;;;;5050947;28;20024;-73
2021/04/10 08:38:00;;;;;;;7.82;2.95;;;26.50;28.50;;;;;;5051859;28;20024;-73
2021/04/10 08:40:29;;;;;;;4.93;2.55;;;26.30;28.80;;;;;;5050623;28;20374;-73
2021/04/10 08:43:00;;;;;;;6.53;3.08;;;26.30;28.80;;;;;;5051898;28;20032;-74
2021/04/10 08:45:32;;;;;;;7.28;3.05;;;26.50;29.00;;;;;;5050647;28;20029;-74
2021/04/10 08:48:03;;;;;;;4.47;2.65;;;26.70;28.60;;;;;;5050752;28;20021;-74
2021/04/10 08:50:31;;;;;;;3.33;2.30;;;26.30;28.40;;;;;;5052773;28;20025;-74
2021/04/10 08:52:58;;;;;;;4.07;2.58;;;26.20;29.10;;;;;;5052001;28;20025;-74
2021/04/10 08:55:24;;;;;;;7.45;3.15;;;25.40;30.40;;;;;;5050319;28;20401;-74
2021/04/10 08:57:49;;;;;;;4.40;2.40;;;23.80;33.30;;;;;;5051418;28;20025;-74
2021/04/10 09:00:22;;;;;;;8.05;2.75;;;22.50;35.40;;;;;;5050190;28;20028;-74
2021/04/10 09:02:53;;;;;;;4.88;2.60;;;21.60;36.90;;;;;;5051820;28;20375;-74
2021/04/10 09:05:19;;;;;;;5.60;2.65;;;21.40;38.20;;;;;;5050262;28;20021;-74
2021/04/10 09:07:48;;;;;;;6.40;2.08;;;22.90;37.10;;;;;;5049872;28;20032;-74
2021/04/10 09:10:28;;;;;;;4.30;2.25;;;24.80;31.90;;;;;;5049747;28;20503;-74
2021/04/10 09:13:15;;;;;;;6.80;2.08;;;27.50;30.10;;;;;;5050956;28;20100;-74
2021/04/10 09:15:41;;;;;;;3.58;1.98;;;30.00;27.70;;;;;;5049685;28;20486;-74
2021/04/10 09:18:11;;;;;;;6.72;2.20;;;31.10;26.40;;;;;;5050870;28;20486;-74
2021/04/10 09:20:48;;;;;;;5.18;2.30;;;31.60;25.80;;;;;;5049596;28;20075;-74
2021/04/10 09:23:27;;;;;;;4.15;2.03;;;31.30;25.90;;;;;;5050864;28;20017;-74
2021/04/10 09:26:10;;;;;;;3.42;2.00;;;32.20;25.60;;;;;;5051067;28;20025;-74
2021/04/10 09:28:56;;;;;;;4.80;2.20;;;33.00;24.60;;;;;;5049363;28;20025;-75
2021/04/10 09:31:36;;;;;;;4.75;2.03;;;35.10;23.00;;;;;;5050648;28;20393;-74
2021/04/10 09:34:03;;;;;;;3.78;2.08;;;35.80;22.00;;;;;;5050951;28;20025;-74
2021/04/10 09:36:46;;;;;;;2.17;1.70;;;37.00;21.50;;;;;;5050266;28;20499;-75
2021/04/10 09:40:04;;;;;;;4.35;2.30;;;38.20;21.10;;;;;;5051247;28;20025;-75
2021/04/10 09:45:23;;;;;;;4.67;2.57;;;38.40;20.10;;;;;;5051305;28;20062;-75
2021/04/10 09:47:59;;;;;;;3.53;2.00;;;39.30;20.50;;;;;;5041251;28;20033;-75
2021/04/10 09:50:30;;;;;;;4.03;1.70;;;39.80;19.50;;;;;;5051066;28;20373;-75
2021/04/10 09:53:00;;;;;;;2.65;1.80;;;39.70;19.50;;;;;;5049256;28;20021;-75
2021/04/10 09:55:30;;;;;;;3.20;1.83;;;38.60;19.80;;;;;;5050718;28;20031;-75
2021/04/10 09:58:00;;;;;;;3.90;1.70;;;38.10;19.50;;;;;;5050258;28;20021;-76
2021/04/10 10:00:31;;;;;;;4.00;1.67;;;37.60;19.90;;;;;;5049002;28;20029;-75
2021/04/10 10:02:59;;;;;;;3.42;1.50;;;38.10;19.80;;;;;;5049556;28;20025;-75
2021/04/10 10:05:30;;;;;;;6.22;1.73;;;37.50;20.10;;;;;;5050214;28;20482;-75
2021/04/10 10:08:06;;;;;;;1.67;1.35;;;36.90;19.90;;;;;;5050133;28;20074;-75
2021/04/10 10:10:38;;;;;;;4.30;2.00;;;37.80;19.80;;;;;;5050326;28;20028;-75
2021/04/10 10:13:05;;;;;;;4.00;1.90;;;38.30;19.20;;;;;;5050087;28;20056;-75
2021/04/10 10:15:31;;;;;;;4.05;1.80;;;38.80;18.70;;;;;;5049875;28;20051;-75
2021/04/10 10:17:57;;;;;;;4.32;1.63;;;39.20;18.90;;;;;;5048471;28;20041;-74
2021/04/10 10:20:23;;;;;;;3.92;1.70;;;39.60;18.20;;;;;;5048871;28;20115;-75
2021/04/10 10:22:49;;;;;;;2.72;1.58;;;39.50;18.40;;;;;;5049813;28;20025;-75
2021/04/10 10:25:15;;;;;;;4.30;1.90;;;39.50;17.50;;;;;;5048541;28;20029;-75
2021/04/10 10:27:42;;;;;;;3.38;1.98;;;40.20;18.30;;;;;;5049707;28;20033;-75
2021/04/10 10:30:18;;;;;;;5.22;1.80;;;41.40;17.80;;;;;;5049747;28;20021;-72
2021/04/10 10:32:45;;;;;;;2.35;1.55;;;42.60;17.50;;;;;;5048458;28;20508;-73
2021/04/10 10:35:13;;;;;;;3.10;1.77;;;43.50;16.50;;;;;;5048479;28;20029;-75
2021/04/10 10:37:39;;;;;;;3.92;1.95;;;43.60;17.40;;;;;;5049560;28;20021;-76
2021/04/10 10:40:06;;;;;;;2.08;1.58;;;42.80;17.00;;;;;;5049812;28;20535;-76
2021/04/10 10:42:32;;;;;;;4.47;1.88;;;40.90;17.60;;;;;;5048652;28;20086;-75
2021/04/10 10:44:57;;;;;;;3.00;1.70;;;38.30;18.60;;;;;;5049391;28;20025;-75
2021/04/10 10:47:24;;;;;;;4.57;1.80;;;35.80;20.80;;;;;;5048037;28;20025;-75
2021/04/10 10:49:51;;;;;;;4.20;2.13;;;34.50;22.30;;;;;;5048146;28;20420;-75
2021/04/10 10:52:17;;;;;;;6.30;1.80;;;33.60;21.80;;;;;;5049281;28;20035;-75
2021/04/10 10:54:43;;;;;;;7.88;2.15;;;33.40;22.50;;;;;;5048063;28;20087;-75
2021/04/10 10:57:17;;;;;;;5.43;2.38;;;35.30;21.10;;;;;;5047976;28;20478;-74
2021/04/10 10:59:43;;;;;;;3.45;1.95;;;36.80;20.40;;;;;;5049643;28;20032;-74
2021/04/10 11:02:10;;;;;;;5.18;2.08;;;38.00;19.60;;;;;;5047927;28;20035;-74
2021/04/10 11:04:37;;;;;;;3.65;1.98;;;37.70;19.80;;;;;;5049246;28;20017;-74
2021/04/10 11:07:06;;;;;;;6.55;2.53;;;38.70;19.40;;;;;;5049339;28;20021;-74
2021/04/10 11:09:34;;;;;;;2.83;1.77;;;38.70;18.90;;;;;;5049214;28;20025;-74
2021/04/10 11:12:04;;;;;;;4.50;1.80;;;37.90;19.80;;;;;;5047955;28;20093;-74
2021/04/10 11:14:33;;;;;;;4.53;2.20;;;38.90;18.90;;;;;;5051132;28;20108;-75
2021/04/10 11:17:00;;;;;;;5.28;1.83;;;39.50;18.30;;;;;;5053201;28;20025;-75
2021/04/10 11:19:37;;;;;;;4.50;2.10;;;41.70;17.80;;;;;;5053613;28;20025;-75
2021/04/10 11:22:05;;;;;;;8.15;5.88;;;43.60;17.00;;;;;;5051929;28;20029;-75
2021/04/10 11:24:39;;;;;;;6.93;4.25;;;44.10;17.00;;;;;;5051969;28;20431;-75
2021/04/10 11:27:22;;;;;;;3.75;2.42;;;44.40;16.00;;;;;;5051882;28;20026;-75
2021/04/10 11:29:58;;;;;;;3.38;2.10;;;44.00;16.70;;;;;;5051971;28;20112;-75
2021/04/10 11:32:53;;;;;;;3.83;2.30;;;44.10;17.20;;;;;;5051822;28;20036;-75
2021/04/10 11:35:21;;;;;;;4.85;2.50;;;43.10;16.50;;;;;;5039893;28;20045;-74
2021/04/10 11:37:53;;;;;;;4.03;1.80;;;41.70;17.00;;;;;;5052912;28;20036;-75
2021/04/10 11:40:24;;;;;;;2.33;1.77;;;42.10;17.60;;;;;;5051723;28;20120;-75
2021/04/10 11:42:58;;;;;;;4.90;2.10;;;42.20;17.30;;;;;;5051677;28;20037;-75
2021/04/10 11:45:28;;;;;;;6.20;2.40;;;42.90;17.10;;;;;;5053071;28;20037;-75
2021/04/10 11:48:15;;;;;;;2.72;1.88;;;43.50;17.10;;;;;;5051524;28;20017;-74
2021/04/10 11:50:58;;;;;;;4.43;2.47;;;43.70;17.00;;;;;;5051457;28;20025;-74
2021/04/10 11:53:28;;;;;;;4.25;2.22;;;43.70;17.20;;;;;;5051370;28;20020;-75
2021/04/10 11:55:58;;;;;;;4.88;2.38;;;43.30;17.10;;;;;;5051390;28;20025;-74
2021/04/10 11:58:32;;;;;;;3.22;2.03;;;42.20;17.30;;;;;;5052519;28;20025;-74
2021/04/10 12:01:07;;;;;;;2.75;2.08;;;42.90;17.50;;;;;;5052376;28;20030;-75
2021/04/10 12:03:45;;;;;;;2.90;1.90;;;42.60;17.20;;;;;;5051326;28;20514;-75
2021/04/10 12:06:40;;;;;;;4.57;2.25;;;42.40;17.40;;;;;;5052475;28;20079;-74
2021/04/10 12:09:09;;;;;;;3.85;2.00;;;42.60;17.20;;;;;;5052417;28;20029;-74
2021/04/10 12:11:37;;;;;;;3.95;1.90;;;42.40;17.30;;;;;;5052385;28;20029;-74
2021/04/10 12:14:04;;;;;;;3.00;2.00;;;42.50;17.80;;;;;;5050955;28;20029;-74
2021/04/10 12:16:30;;;;;;;4.65;2.05;;;42.40;17.40;;;;;;5052034;28;20039;-75
2021/04/10 12:18:55;;;;;;;4.82;2.13;;;40.90;18.10;;;;;;5070717;22;20135;-74
2021/04/10 12:21:21;;;;;;;5.32;2.58;;;39.80;18.50;;;;;;5072308;28;20028;-74
2021/04/10 12:23:47;;;;;;;3.90;2.00;;;38.40;19.30;;;;;;5054265;28;20140;-74
2021/04/10 12:26:12;;;;;;;8.27;2.40;;;36.80;20.00;;;;;;5072082;28;20025;-74
2021/04/10 12:28:38;;;;;;;4.13;2.30;;;35.10;20.60;;;;;;5073377;28;20020;-74
2021/04/10 12:31:09;;;;;;;3.83;2.28;;;34.30;21.60;;;;;;5055483;28;20024;-74
2021/04/10 12:33:35;;;;;;;4.32;2.70;;;33.50;22.40;;;;;;5074411;28;20027;-74
2021/04/10 12:36:01;;;;;;;3.92;2.17;;;32.50;23.30;;;;;;5073693;28;20397;-74
2021/04/10 12:38:26;;;;;;;4.18;2.50;;;32.50;23.90;;;;;;5057622;28;20027;-74
2021/04/10 12:40:52;;;;;;;8.23;2.58;;;32.70;23.20;;;;;;5073542;28;20496;-74
2021/04/10 12:43:18;;;;;;;4.00;2.60;;;33.30;23.30;;;;;;5071813;28;20541;-74
2021/04/10 12:45:43;;;;;;;4.10;2.38;;;34.20;22.40;;;;;;5053746;28;20492;-74
2021/04/10 12:48:09;;;;;;;5.43;2.40;;;35.10;22.60;;;;;;5053760;28;20023;-74
2021/04/10 12:50:35;;;;;;;4.50;2.08;;;36.20;21.60;;;;;;5053647;28;20070;-74
2021/04/10 12:53:00;;;;;;;5.80;3.65;;;37.30;20.90;;;;;;5071599;28;20039;-74
2021/04/10 12:55:26;;;;;;;5.32;2.88;;;38.10;19.60;;;;;;5072032;28;20020;-74
2021/04/10 12:57:53;;;;;;;5.80;2.97;;;38.40;20.20;;;;;;5071958;28;20024;-74
2021/04/10 13:00:19;;;;;;;3.88;2.30;;;37.90;19.90;;;;;;5071408;28;20531;-74
2021/04/10 13:02:45;;;;;;;4.35;2.40;;;37.10;19.90;;;;;;5053439;28;20028;-74